createdAt,value
2017-02-14T00:00:27.273Z,98.87
2017-02-14T00:01:27.220Z,97.64
2017-02-14T00:02:27.202Z,98.68
2017-02-14T00:03:27.176Z,98.49
2017-02-14T00:04:27.145Z,98.68
2017-02-14T00:05:27.138Z,98.87
2017-02-14T00:06:27.099Z,98.96
2017-02-14T00:07:26.683Z,98.3
2017-02-14T00:08:27.049Z,98.39
2017-02-14T00:09:27.018Z,98.87
2017-02-14T00:10:26.984Z,98.49
2017-02-14T00:11:26.973Z,98.96
2017-02-14T00:12:26.934Z,98.91
2017-02-14T00:13:26.534Z,98.87
2017-02-14T00:14:26.520Z,99.15
2017-02-14T00:15:26.876Z,99.72
2017-02-14T00:16:26.451Z,99.58
2017-02-14T00:17:26.423Z,99.48
2017-02-14T00:18:26.792Z,99.48
2017-02-14T00:19:26.761Z,99.48
2017-02-14T00:20:26.359Z,99.96
2017-02-14T00:21:26.319Z,99.99
2017-02-14T00:22:26.288Z,99.99
2017-02-14T00:23:26.668Z,99.67
2017-02-14T00:24:26.633Z,99.29
2017-02-14T00:25:26.606Z,99.2
2017-02-14T00:26:26.589Z,99.96
2017-02-14T00:27:26.559Z,99.96
2017-02-14T00:28:26.526Z,99.99
2017-02-14T00:29:26.495Z,99.86
2017-02-14T00:30:26.483Z,99.39
2017-02-14T00:31:26.453Z,99.25
2017-02-14T00:32:26.423Z,99.15
2017-02-14T00:33:26.402Z,98.91
2017-02-14T00:34:26.373Z,98.91
2017-02-14T00:35:26.349Z,99.29
2017-02-14T00:36:25.940Z,99.99
2017-02-14T00:37:26.288Z,99.99
2017-02-14T00:38:25.879Z,99.99
2017-02-14T00:39:26.260Z,99.99
2017-02-14T00:40:25.829Z,99.63
2017-02-14T00:41:26.198Z,99.15
2017-02-14T00:42:25.764Z,98.58
2017-02-14T00:43:25.741Z,98.58
2017-02-14T00:44:26.117Z,98.58
2017-02-14T00:45:26.077Z,98.02
2017-02-14T00:46:25.666Z,97.73
2017-02-14T00:47:25.645Z,98.58
2017-02-14T00:48:26.005Z,98.11
2017-02-14T00:49:25.986Z,98.11
2017-02-14T00:50:25.964Z,98.21
2017-02-14T00:51:25.543Z,98.11
2017-02-14T00:52:25.913Z,98.11
2017-02-14T00:53:25.869Z,97.92
2017-02-14T00:54:25.852Z,98.11
2017-02-14T00:55:25.830Z,98.58
2017-02-14T00:56:25.812Z,98.77
2017-02-14T00:57:25.779Z,98.49
2017-02-14T00:58:25.749Z,99.15
2017-02-14T00:59:25.719Z,99.06
2017-02-14T01:00:25.688Z,98.72
2017-02-14T01:01:25.289Z,99.44
2017-02-14T01:02:25.646Z,99.1
2017-02-14T01:03:25.616Z,99.58
2017-02-14T01:04:25.597Z,99.48
2017-02-14T01:05:25.187Z,99.48
2017-02-14T01:06:25.534Z,99.39
2017-02-14T01:07:25.160Z,99.58
2017-02-14T01:08:25.494Z,99.39
2017-02-14T01:09:25.464Z,99.67
2017-02-14T01:10:25.053Z,99.86
2017-02-14T01:11:25.122Z,99.77
2017-02-14T01:12:25.002Z,99.99
2017-02-14T01:13:25.373Z,99.99
2017-02-14T01:14:25.331Z,99.99
2017-02-14T01:15:24.997Z,99.99
2017-02-14T01:16:25.316Z,99.99
2017-02-14T01:17:25.250Z,99.99
2017-02-14T01:18:25.218Z,99.99
2017-02-14T01:19:24.817Z,99.99
2017-02-14T01:20:25.178Z,99.99
2017-02-14T01:21:25.148Z,99.99
2017-02-14T01:22:25.126Z,99.99
2017-02-14T01:23:24.726Z,99.99
2017-02-14T01:24:25.076Z,99.99
2017-02-14T01:25:25.036Z,99.99
2017-02-14T01:26:25.004Z,99.99
2017-02-14T01:27:24.591Z,99.99
2017-02-14T01:28:24.573Z,99.99
2017-02-14T01:29:24.942Z,99.99
2017-02-14T01:30:24.903Z,99.99
2017-02-14T01:31:24.892Z,99.99
2017-02-14T01:32:24.906Z,99.99
2017-02-14T01:33:24.434Z,99.99
2017-02-14T01:34:24.419Z,99.99
2017-02-14T01:35:24.781Z,99.99
2017-02-14T01:36:24.370Z,99.99
2017-02-14T01:37:24.330Z,99.99
2017-02-14T01:38:24.307Z,99.99
2017-02-14T01:39:24.681Z,99.99
2017-02-14T01:40:24.256Z,99.99
2017-02-14T01:41:24.626Z,99.99
2017-02-14T01:42:24.585Z,99.99
2017-02-14T01:43:24.174Z,99.99
2017-02-14T01:44:24.144Z,99.99
2017-02-14T01:45:24.513Z,99.99
2017-02-14T01:46:24.502Z,99.99
2017-02-14T01:47:24.456Z,99.99
2017-02-14T01:48:24.434Z,99.99
2017-02-14T01:49:24.011Z,99.99
2017-02-14T01:50:24.002Z,99.96
2017-02-14T01:51:23.962Z,99.86
2017-02-14T01:52:23.939Z,99.96
2017-02-14T01:53:23.920Z,99.48
2017-02-14T01:54:24.269Z,99.58
2017-02-14T01:55:24.260Z,99.67
2017-02-14T01:56:23.832Z,99.86
2017-02-14T01:57:23.804Z,99.96
2017-02-14T01:58:24.168Z,99.86
2017-02-14T01:59:24.156Z,99.96
2017-02-14T02:00:24.107Z,99.99
2017-02-14T02:01:24.097Z,99.77
2017-02-14T02:02:23.679Z,99.99
2017-02-14T02:03:23.651Z,99.77
2017-02-14T02:04:24.015Z,99.86
2017-02-14T02:05:23.983Z,99.99
2017-02-14T02:06:23.951Z,99.96
2017-02-14T02:07:23.953Z,99.29
2017-02-14T02:08:23.524Z,99.29
2017-02-14T02:09:23.491Z,99.29
2017-02-14T02:10:23.842Z,99.48
2017-02-14T02:11:23.830Z,99.99
2017-02-14T02:12:23.801Z,99.99
2017-02-14T02:13:23.783Z,99.96
2017-02-14T02:14:23.754Z,99.58
2017-02-14T02:15:23.728Z,99.99
2017-02-14T02:16:23.709Z,99.39
2017-02-14T02:17:23.663Z,99.58
2017-02-14T02:18:23.262Z,99.48
2017-02-14T02:19:23.615Z,99.48
2017-02-14T02:20:23.597Z,99.29
2017-02-14T02:21:23.165Z,99.67
2017-02-14T02:22:23.529Z,99.86
2017-02-14T02:23:23.514Z,99.86
2017-02-14T02:24:23.484Z,99.99
2017-02-14T02:25:23.463Z,99.99
2017-02-14T02:26:23.431Z,99.99
2017-02-14T02:27:23.422Z,99.99
2017-02-14T02:28:23.372Z,99.99
2017-02-14T02:29:23.351Z,99.99
2017-02-14T02:30:23.320Z,99.99
2017-02-14T02:31:23.311Z,99.99
2017-02-14T02:32:23.269Z,99.99
2017-02-14T02:33:22.868Z,99.99
2017-02-14T02:34:22.839Z,99.99
2017-02-14T02:35:22.809Z,99.99
2017-02-14T02:36:23.166Z,99.99
2017-02-14T02:37:22.762Z,99.99
2017-02-14T02:38:22.733Z,99.99
2017-02-14T02:39:23.097Z,99.99
2017-02-14T02:40:22.698Z,99.96
2017-02-14T02:41:22.654Z,99.86
2017-02-14T02:42:23.003Z,99.77
2017-02-14T02:43:22.589Z,99.48
2017-02-14T02:44:22.563Z,99.86
2017-02-14T02:45:22.935Z,99.99
2017-02-14T02:46:22.892Z,99.39
2017-02-14T02:47:22.479Z,99.99
2017-02-14T02:48:22.853Z,99.39
2017-02-14T02:49:22.821Z,99.39
2017-02-14T02:50:22.832Z,99.96
2017-02-14T02:51:22.377Z,99.99
2017-02-14T02:52:22.744Z,99.99
2017-02-14T02:53:22.717Z,99.39
2017-02-14T02:54:22.738Z,99.67
2017-02-14T02:55:22.278Z,99.86
2017-02-14T02:56:22.647Z,99.67
2017-02-14T02:57:22.223Z,99.39
2017-02-14T02:58:22.585Z,99.39
2017-02-14T02:59:22.194Z,99.48
2017-02-14T03:00:22.145Z,99.48
2017-02-14T03:01:22.512Z,99.48
2017-02-14T03:02:22.484Z,99.99
2017-02-14T03:03:22.462Z,99.39
2017-02-14T03:04:22.442Z,99.29
2017-02-14T03:05:22.024Z,99.39
2017-02-14T03:06:22.371Z,99.39
2017-02-14T03:07:22.341Z,99.39
2017-02-14T03:08:22.320Z,99.77
2017-02-14T03:09:22.283Z,99.86
2017-02-14T03:10:22.259Z,99.99
2017-02-14T03:11:22.230Z,99.99
2017-02-14T03:12:22.208Z,99.58
2017-02-14T03:13:21.787Z,99.39
2017-02-14T03:14:22.156Z,99.29
2017-02-14T03:15:22.134Z,99.29
2017-02-14T03:16:22.103Z,99.58
2017-02-14T03:17:21.696Z,99.39
2017-02-14T03:18:22.035Z,99.99
2017-02-14T03:19:22.016Z,99.48
2017-02-14T03:20:21.993Z,99.39
2017-02-14T03:21:21.574Z,99.48
2017-02-14T03:22:21.949Z,99.48
2017-02-14T03:23:21.523Z,99.58
2017-02-14T03:24:21.891Z,99.29
2017-02-14T03:25:21.859Z,99.29
2017-02-14T03:26:21.829Z,99.58
2017-02-14T03:27:21.812Z,99.29
2017-02-14T03:28:21.779Z,99.58
2017-02-14T03:29:21.747Z,99.2
2017-02-14T03:30:21.334Z,99.1
2017-02-14T03:31:21.688Z,99.39
2017-02-14T03:32:21.278Z,98.63
2017-02-14T03:33:21.256Z,98.54
2017-02-14T03:34:21.615Z,98.72
2017-02-14T03:35:21.228Z,98.35
2017-02-14T03:36:21.176Z,98.91
2017-02-14T03:37:21.141Z,98.82
2017-02-14T03:38:21.503Z,99.01
2017-02-14T03:39:21.483Z,98.63
2017-02-14T03:40:21.451Z,98.54
2017-02-14T03:41:21.046Z,98.35
2017-02-14T03:42:21.432Z,98.54
2017-02-14T03:43:21.382Z,98.72
2017-02-14T03:44:21.380Z,98.35
2017-02-14T03:45:20.931Z,98.82
2017-02-14T03:46:21.289Z,98.54
2017-02-14T03:47:21.260Z,98.63
2017-02-14T03:48:21.244Z,98.63
2017-02-14T03:49:21.228Z,98.25
2017-02-14T03:50:20.808Z,98.25
2017-02-14T03:51:21.158Z,98.25
2017-02-14T03:52:21.136Z,98.25
2017-02-14T03:53:21.127Z,98.25
2017-02-14T03:54:21.077Z,98.35
2017-02-14T03:55:21.053Z,98.35
2017-02-14T03:56:21.025Z,98.63
2017-02-14T03:57:21.009Z,98.54
2017-02-14T03:58:20.983Z,98.63
2017-02-14T03:59:20.961Z,98.54
2017-02-14T04:00:20.924Z,98.54
2017-02-14T04:01:20.952Z,98.63
2017-02-14T04:02:20.489Z,98.91
2017-02-14T04:03:20.871Z,98.91
2017-02-14T04:04:20.814Z,98.82
2017-02-14T04:05:20.817Z,99.24
2017-02-14T04:06:20.758Z,99.15
2017-02-14T04:07:20.739Z,99.05
2017-02-14T04:08:20.318Z,99.39
2017-02-14T04:09:20.697Z,99.1
2017-02-14T04:10:20.646Z,99.2
2017-02-14T04:11:20.238Z,99.01
2017-02-14T04:12:20.626Z,98.91
2017-02-14T04:13:20.637Z,98.82
2017-02-14T04:14:20.554Z,98.63
2017-02-14T04:15:20.512Z,98.86
2017-02-14T04:16:20.514Z,99.15
2017-02-14T04:17:20.081Z,99.15
2017-02-14T04:18:20.447Z,99.24
2017-02-14T04:19:20.414Z,99.05
2017-02-14T04:20:20.391Z,98.86
2017-02-14T04:21:20.364Z,98.91
2017-02-14T04:22:19.951Z,98.72
2017-02-14T04:23:20.312Z,98.77
2017-02-14T04:24:20.282Z,98.77
2017-02-14T04:25:19.868Z,98.96
2017-02-14T04:26:20.239Z,98.96
2017-02-14T04:27:19.808Z,99.05
2017-02-14T04:28:20.180Z,99.24
2017-02-14T04:29:20.162Z,99.33
2017-02-14T04:30:20.123Z,98.91
2017-02-14T04:31:19.707Z,99.01
2017-02-14T04:32:20.065Z,98.82
2017-02-14T04:33:20.044Z,98.44
2017-02-14T04:34:19.623Z,98.25
2017-02-14T04:35:19.599Z,98.54
2017-02-14T04:36:19.580Z,98.44
2017-02-14T04:37:19.923Z,98.35
2017-02-14T04:38:19.902Z,98.35
2017-02-14T04:39:19.485Z,98.06
2017-02-14T04:40:19.851Z,97.87
2017-02-14T04:41:19.820Z,97.59
2017-02-14T04:42:19.410Z,97.68
2017-02-14T04:43:19.380Z,97.87
2017-02-14T04:44:19.745Z,97.87
2017-02-14T04:45:19.327Z,97.68
2017-02-14T04:46:19.685Z,97.97
2017-02-14T04:47:19.275Z,98.06
2017-02-14T04:48:19.649Z,97.78
2017-02-14T04:49:19.627Z,98.54
2017-02-14T04:50:19.586Z,98.49
2017-02-14T04:51:19.565Z,98.44
2017-02-14T04:52:19.166Z,98.44
2017-02-14T04:53:19.122Z,98.44
2017-02-14T04:54:19.483Z,98.01
2017-02-14T04:55:19.062Z,98.63
2017-02-14T04:56:19.423Z,98.44
2017-02-14T04:57:19.393Z,98.44
2017-02-14T04:58:19.374Z,98.44
2017-02-14T04:59:19.351Z,98.39
2017-02-14T05:00:19.323Z,98.35
2017-02-14T05:01:19.311Z,98.25
2017-02-14T05:02:18.880Z,98.25
2017-02-14T05:03:19.239Z,98.77
2017-02-14T05:04:19.217Z,98.39
2017-02-14T05:05:18.807Z,98.58
2017-02-14T05:06:18.780Z,99.43
2017-02-14T05:07:19.137Z,99.33
2017-02-14T05:08:19.188Z,99.33
2017-02-14T05:09:19.143Z,99.24
2017-02-14T05:10:19.046Z,99.99
2017-02-14T05:11:19.087Z,99.62
2017-02-14T05:12:19.004Z,99.99
2017-02-14T05:13:18.983Z,99.99
2017-02-14T05:14:18.941Z,99.62
2017-02-14T05:15:18.934Z,99.9
2017-02-14T05:16:18.943Z,99.99
2017-02-14T05:17:18.872Z,99.43
2017-02-14T05:18:18.884Z,99.43
2017-02-14T05:19:18.832Z,99.15
2017-02-14T05:20:18.390Z,98.86
2017-02-14T05:21:18.750Z,98.39
2017-02-14T05:22:18.339Z,98.77
2017-02-14T05:23:18.704Z,98.77
2017-02-14T05:24:18.734Z,98.77
2017-02-14T05:25:18.268Z,98.58
2017-02-14T05:26:18.631Z,98.3
2017-02-14T05:27:18.596Z,98.35
2017-02-14T05:28:18.174Z,98.39
2017-02-14T05:29:18.556Z,98.2
2017-02-14T05:30:18.527Z,98.44
2017-02-14T05:31:18.094Z,98.35
2017-02-14T05:32:18.455Z,98.16
2017-02-14T05:33:18.054Z,98.63
2017-02-14T05:34:18.034Z,98.35
2017-02-14T05:35:18.402Z,98.35
2017-02-14T05:36:17.956Z,98.25
2017-02-14T05:37:17.952Z,98.35
2017-02-14T05:38:17.907Z,98.44
2017-02-14T05:39:17.877Z,97.87
2017-02-14T05:40:18.255Z,97.78
2017-02-14T05:41:18.221Z,98.25
2017-02-14T05:42:18.191Z,97.87
2017-02-14T05:43:17.789Z,97.73
2017-02-14T05:44:18.149Z,98.58
2017-02-14T05:45:18.106Z,98.39
2017-02-14T05:46:18.098Z,98.16
2017-02-14T05:47:17.673Z,98.11
2017-02-14T05:48:18.034Z,98.3
2017-02-14T05:49:18.027Z,98.58
2017-02-14T05:50:17.589Z,98.63
2017-02-14T05:51:17.574Z,98.39
2017-02-14T05:52:17.544Z,98.11
2017-02-14T05:53:17.894Z,98.39
2017-02-14T05:54:17.873Z,98.39
2017-02-14T05:55:17.454Z,98.68
2017-02-14T05:56:17.829Z,98.68
2017-02-14T05:57:17.412Z,98.96
2017-02-14T05:58:17.760Z,98.77
2017-02-14T05:59:17.740Z,98.86
2017-02-14T06:00:17.324Z,98.96
2017-02-14T06:01:17.293Z,99.05
2017-02-14T06:02:17.654Z,98.49
2017-02-14T06:03:17.237Z,98.49
2017-02-14T06:04:17.599Z,98.3
2017-02-14T06:05:17.196Z,98.49
2017-02-14T06:06:17.205Z,98.39
2017-02-14T06:07:17.126Z,98.58
2017-02-14T06:08:17.548Z,98.86
2017-02-14T06:09:17.080Z,98.58
2017-02-14T06:10:17.485Z,98.86
2017-02-14T06:11:17.040Z,98.86
2017-02-14T06:12:17.460Z,99.05
2017-02-14T06:13:17.432Z,99.24
2017-02-14T06:14:17.441Z,99.24
2017-02-14T06:15:17.351Z,99.15
2017-02-14T06:16:17.353Z,99.15
2017-02-14T06:17:16.861Z,98.58
2017-02-14T06:18:17.290Z,98.58
2017-02-14T06:19:17.203Z,98.68
2017-02-14T06:20:16.861Z,99.05
2017-02-14T06:21:17.248Z,98.77
2017-02-14T06:22:17.224Z,98.77
2017-02-14T06:23:17.138Z,98.86
2017-02-14T06:24:17.073Z,98.68
2017-02-14T06:25:17.051Z,99.05
2017-02-14T06:26:16.736Z,98.77
2017-02-14T06:27:17.057Z,98.68
2017-02-14T06:28:17.014Z,99.05
2017-02-14T06:29:16.949Z,98.77
2017-02-14T06:30:16.892Z,98.2
2017-02-14T06:31:16.875Z,98.77
2017-02-14T06:32:16.470Z,98.39
2017-02-14T06:33:16.832Z,98.2
2017-02-14T06:34:16.403Z,98.39
2017-02-14T06:35:16.381Z,98.3
2017-02-14T06:36:16.741Z,98.39
2017-02-14T06:37:16.320Z,98.3
2017-02-14T06:38:16.691Z,98.68
2017-02-14T06:39:16.659Z,99.05
2017-02-14T06:40:16.638Z,99.05
2017-02-14T06:41:16.228Z,99.15
2017-02-14T06:42:16.569Z,99.24
2017-02-14T06:43:16.157Z,99.52
2017-02-14T06:44:16.526Z,99.33
2017-02-14T06:45:16.506Z,99.43
2017-02-14T06:46:16.484Z,99.24
2017-02-14T06:47:16.055Z,99.52
2017-02-14T06:48:16.436Z,99.43
2017-02-14T06:49:16.003Z,98.86
2017-02-14T06:50:16.381Z,99.15
2017-02-14T06:51:16.343Z,99.15
2017-02-14T06:52:15.933Z,98.96
2017-02-14T06:53:16.292Z,99.24
2017-02-14T06:54:15.861Z,99.24
2017-02-14T06:55:16.231Z,99.15
2017-02-14T06:56:16.200Z,99.05
2017-02-14T06:57:16.180Z,99.43
2017-02-14T06:58:16.157Z,99.52
2017-02-14T06:59:16.131Z,99.71
2017-02-14T07:00:16.097Z,99.99
2017-02-14T07:01:16.057Z,99.9
2017-02-14T07:02:16.039Z,99.71
2017-02-14T07:03:15.622Z,99.71
2017-02-14T07:04:16.005Z,99.99
2017-02-14T07:05:15.955Z,99.99
2017-02-14T07:06:15.545Z,99.99
2017-02-14T07:07:15.523Z,99.99
2017-02-14T07:08:15.874Z,99.62
2017-02-14T07:09:15.854Z,99.62
2017-02-14T07:10:15.433Z,99.81
2017-02-14T07:11:15.445Z,99.62
2017-02-14T07:12:15.387Z,99.62
2017-02-14T07:13:15.800Z,99.99
2017-02-14T07:14:15.320Z,99.43
2017-02-14T07:15:15.700Z,98.68
2017-02-14T07:16:15.276Z,97.11
2017-02-14T07:17:15.689Z,95.07
2017-02-14T07:18:15.607Z,93.84
2017-02-14T07:19:15.191Z,92.71
2017-02-14T07:20:15.171Z,92.71
2017-02-14T07:21:15.617Z,90.95
2017-02-14T07:22:15.496Z,88.53
2017-02-14T07:23:15.166Z,86.68
2017-02-14T07:24:15.056Z,85.25
2017-02-14T07:25:15.424Z,82.82
2017-02-14T07:26:15.410Z,81.35
2017-02-14T07:27:15.504Z,80.15
2017-02-14T07:28:14.994Z,79.86
2017-02-14T07:29:15.327Z,80.53
2017-02-14T07:30:15.075Z,81.35
2017-02-14T07:31:15.282Z,82.88
2017-02-14T07:32:15.325Z,84.74
2017-02-14T07:33:14.937Z,86.63
2017-02-14T07:34:14.820Z,87.39
2017-02-14T07:35:15.188Z,88.29
2017-02-14T07:36:15.171Z,88.68
2017-02-14T07:37:15.146Z,89.81
2017-02-14T07:38:14.724Z,90.62
2017-02-14T07:39:15.088Z,91
2017-02-14T07:40:14.677Z,91.85
2017-02-14T07:41:14.728Z,90.43
2017-02-14T07:42:15.124Z,87.58
2017-02-14T07:43:15.003Z,84.72
2017-02-14T07:44:14.595Z,81.2
2017-02-14T07:45:14.615Z,78.48
2017-02-14T07:46:14.530Z,76.76
2017-02-14T07:47:14.916Z,74.18
2017-02-14T07:48:14.502Z,72.5
2017-02-14T07:49:14.529Z,71.93
2017-02-14T07:50:14.447Z,70.82
2017-02-14T07:51:14.835Z,70.12
2017-02-14T07:52:14.789Z,70.12
2017-02-14T07:53:14.390Z,71.03
2017-02-14T07:54:14.369Z,71.13
2017-02-14T07:55:14.761Z,69.2
2017-02-14T07:56:14.731Z,67.74
2017-02-14T07:57:14.720Z,67.23
2017-02-14T07:58:14.297Z,65.58
2017-02-14T07:59:14.676Z,64.18
2017-02-14T08:00:14.658Z,64.12
2017-02-14T08:01:14.648Z,64.43
2017-02-14T08:02:14.606Z,64.5
2017-02-14T08:03:14.632Z,64.31
2017-02-14T08:04:14.584Z,63.57
2017-02-14T08:05:14.173Z,62.81
2017-02-14T08:06:14.555Z,62.55
2017-02-14T08:07:14.133Z,61.82
2017-02-14T08:08:14.127Z,61.95
2017-02-14T08:09:14.101Z,61.6
2017-02-14T08:10:14.591Z,60.39
2017-02-14T08:11:14.078Z,60.33
2017-02-14T08:12:14.068Z,60.04
2017-02-14T08:13:14.425Z,60.1
2017-02-14T08:14:14.420Z,60.39
2017-02-14T08:15:14.031Z,61.32
2017-02-14T08:16:14.378Z,61.66
2017-02-14T08:17:14.377Z,61.41
2017-02-14T08:18:14.369Z,61.32
2017-02-14T08:19:14.356Z,60.77
2017-02-14T08:20:14.347Z,60.68
2017-02-14T08:21:13.938Z,61.06
2017-02-14T08:22:14.337Z,60.9
2017-02-14T08:23:14.294Z,60.64
2017-02-14T08:24:14.271Z,60.9
2017-02-14T08:25:14.282Z,61.13
2017-02-14T08:26:14.252Z,61.66
2017-02-14T08:27:13.860Z,62.02
2017-02-14T08:28:13.844Z,61.95
2017-02-14T08:29:14.238Z,62.52
2017-02-14T08:30:14.201Z,62.52
2017-02-14T08:31:14.191Z,61.41
2017-02-14T08:32:13.791Z,61.51
2017-02-14T08:33:14.167Z,62.34
2017-02-14T08:34:14.159Z,63.16
2017-02-14T08:35:14.130Z,63.64
2017-02-14T08:36:14.125Z,63.64
2017-02-14T08:37:14.097Z,62.43
2017-02-14T08:38:13.697Z,62.05
2017-02-14T08:39:13.685Z,61.41
2017-02-14T08:40:14.067Z,61.03
2017-02-14T08:41:13.665Z,60.93
2017-02-14T08:42:14.038Z,61.47
2017-02-14T08:43:14.024Z,61.95
2017-02-14T08:44:13.624Z,61.66
2017-02-14T08:45:13.614Z,61.38
2017-02-14T08:46:13.979Z,61.1
2017-02-14T08:47:13.591Z,60.93
2017-02-14T08:48:13.582Z,60.55
2017-02-14T08:49:13.970Z,60.49
2017-02-14T08:50:13.942Z,60.74
2017-02-14T08:51:13.969Z,60.81
2017-02-14T08:52:13.903Z,60.64
2017-02-14T08:53:13.895Z,61.03
2017-02-14T08:54:13.881Z,60.9
2017-02-14T08:55:13.463Z,61.1
2017-02-14T08:56:13.838Z,61.41
2017-02-14T08:57:13.845Z,61.32
2017-02-14T08:58:13.828Z,60.36
2017-02-14T08:59:13.801Z,59.91
2017-02-14T09:00:13.808Z,59.08
2017-02-14T09:01:13.784Z,58.38
2017-02-14T09:02:13.780Z,58.32
2017-02-14T09:03:13.379Z,58.06
2017-02-14T09:04:13.761Z,57.01
2017-02-14T09:05:13.744Z,57.39
2017-02-14T09:06:13.741Z,57.1
2017-02-14T09:07:13.331Z,57.32
2017-02-14T09:08:13.721Z,58.93
2017-02-14T09:09:13.709Z,59.05
2017-02-14T09:10:13.695Z,58.41
2017-02-14T09:11:13.669Z,57.84
2017-02-14T09:12:13.668Z,57.55
2017-02-14T09:13:13.258Z,58.61
2017-02-14T09:14:13.637Z,58.19
2017-02-14T09:15:13.635Z,58.93
2017-02-14T09:16:13.617Z,60.33
2017-02-14T09:17:13.606Z,61.1
2017-02-14T09:18:13.202Z,60.9
2017-02-14T09:19:13.586Z,61.25
2017-02-14T09:20:13.246Z,61.19
2017-02-14T09:21:13.565Z,61.16
2017-02-14T09:22:13.574Z,61.83
2017-02-14T09:23:13.154Z,62.11
2017-02-14T09:24:13.540Z,62.46
2017-02-14T09:25:13.538Z,62.56
2017-02-14T09:26:13.171Z,62.4
2017-02-14T09:27:13.124Z,60.55
2017-02-14T09:28:13.490Z,59.72
2017-02-14T09:29:13.490Z,58.98
2017-02-14T09:30:13.477Z,57.75
2017-02-14T09:31:13.079Z,57.77
2017-02-14T09:32:13.068Z,57.29
2017-02-14T09:33:13.440Z,57.36
2017-02-14T09:34:13.051Z,58.76
2017-02-14T09:35:13.524Z,59.91
2017-02-14T09:36:13.116Z,60.42
2017-02-14T09:37:13.447Z,61.63
2017-02-14T09:38:13.434Z,62.18
2017-02-14T09:39:12.984Z,61.47
2017-02-14T09:40:13.443Z,60.9
2017-02-14T09:41:13.433Z,62.02
2017-02-14T09:42:12.999Z,63.04
2017-02-14T09:43:12.942Z,63.42
2017-02-14T09:44:13.434Z,62.71
2017-02-14T09:45:12.933Z,61.86
2017-02-14T09:46:13.346Z,61.29
2017-02-14T09:47:13.300Z,61.63
2017-02-14T09:48:12.905Z,61.92
2017-02-14T09:49:13.268Z,61.47
2017-02-14T09:50:12.927Z,61.83
2017-02-14T09:51:13.247Z,62.11
2017-02-14T09:52:12.847Z,62.4
2017-02-14T09:53:13.237Z,61.03
2017-02-14T09:54:13.229Z,59.08
2017-02-14T09:55:12.819Z,57.97
2017-02-14T09:56:13.184Z,57.2
2017-02-14T09:57:13.183Z,56.84
2017-02-14T09:58:12.775Z,56.56
2017-02-14T09:59:12.763Z,56.39
2017-02-14T10:00:13.164Z,57.2
2017-02-14T10:01:13.154Z,57.29
2017-02-14T10:02:13.121Z,57.07
2017-02-14T10:03:13.113Z,57.29
2017-02-14T10:04:13.111Z,57.55
2017-02-14T10:05:12.712Z,57.2
2017-02-14T10:06:12.700Z,57.39
2017-02-14T10:07:13.072Z,58.29
2017-02-14T10:08:13.071Z,58.41
2017-02-14T10:09:13.059Z,57.77
2017-02-14T10:10:12.659Z,57.51
2017-02-14T10:11:13.038Z,56.84
2017-02-14T10:12:12.638Z,56.94
2017-02-14T10:13:13.027Z,56.84
2017-02-14T10:14:13.004Z,57.36
2017-02-14T10:15:13.002Z,57.75
2017-02-14T10:16:12.985Z,57.75
2017-02-14T10:17:12.602Z,58.19
2017-02-14T10:18:12.973Z,57.84
2017-02-14T10:19:12.574Z,57.46
2017-02-14T10:20:12.956Z,57.48
2017-02-14T10:21:12.561Z,57.01
2017-02-14T10:22:12.995Z,57.2
2017-02-14T10:23:12.922Z,57.84
2017-02-14T10:24:12.525Z,58.41
2017-02-14T10:25:12.910Z,58.22
2017-02-14T10:26:12.889Z,57.51
2017-02-14T10:27:12.876Z,56.59
2017-02-14T10:28:12.479Z,55.44
2017-02-14T10:29:12.868Z,55.53
2017-02-14T10:30:12.914Z,56.91
2017-02-14T10:31:12.837Z,57.1
2017-02-14T10:32:12.826Z,58.32
2017-02-14T10:33:12.422Z,60.04
2017-02-14T10:34:12.857Z,61.29
2017-02-14T10:35:12.785Z,61.63
2017-02-14T10:36:12.801Z,61.76
2017-02-14T10:37:12.776Z,60.39
2017-02-14T10:38:12.367Z,58.98
2017-02-14T10:39:12.753Z,58.15
2017-02-14T10:40:12.359Z,57.13
2017-02-14T10:41:12.741Z,56.23
2017-02-14T10:42:12.731Z,54.91
2017-02-14T10:43:12.327Z,53.63
2017-02-14T10:44:12.696Z,53.5
2017-02-14T10:45:12.680Z,54.6
2017-02-14T10:46:12.290Z,55.6
2017-02-14T10:47:12.658Z,55.98
2017-02-14T10:48:12.274Z,55.44
2017-02-14T10:49:12.653Z,55.18
2017-02-14T10:50:12.634Z,54.96
2017-02-14T10:51:12.239Z,54.7
2017-02-14T10:52:12.243Z,54.48
2017-02-14T10:53:12.602Z,54.7
2017-02-14T10:54:12.589Z,54.32
2017-02-14T10:55:12.580Z,54.34
2017-02-14T10:56:12.578Z,53.48
2017-02-14T10:57:12.567Z,53.38
2017-02-14T10:58:12.557Z,52.55
2017-02-14T10:59:12.527Z,52.81
2017-02-14T11:00:12.177Z,53.64
2017-02-14T11:01:12.509Z,53.48
2017-02-14T11:02:12.503Z,53.19
2017-02-14T11:03:12.511Z,52.45
2017-02-14T11:04:12.494Z,52.45
2017-02-14T11:05:12.480Z,51.81
2017-02-14T11:06:12.471Z,51.71
2017-02-14T11:07:12.456Z,50.96
2017-02-14T11:08:12.446Z,50.99
2017-02-14T11:09:12.433Z,50.25
2017-02-14T11:10:12.424Z,50.34
2017-02-14T11:11:12.015Z,50.05
2017-02-14T11:12:12.426Z,49.48
2017-02-14T11:13:12.004Z,49.96
2017-02-14T11:14:12.371Z,50.32
2017-02-14T11:15:12.374Z,50.23
2017-02-14T11:16:11.975Z,50.1
2017-02-14T11:17:11.979Z,50.49
2017-02-14T11:18:11.950Z,50.03
2017-02-14T11:19:12.336Z,49.48
2017-02-14T11:20:11.929Z,49.87
2017-02-14T11:21:12.315Z,49.87
2017-02-14T11:22:11.924Z,50.1
2017-02-14T11:23:12.280Z,50.37
2017-02-14T11:24:11.898Z,50.78
2017-02-14T11:25:12.280Z,50.65
2017-02-14T11:26:12.259Z,51.14
2017-02-14T11:27:11.870Z,50.87
2017-02-14T11:28:12.257Z,50.9
2017-02-14T11:29:11.834Z,50.63
2017-02-14T11:30:11.843Z,50.05
2017-02-14T11:31:12.206Z,49.77
2017-02-14T11:32:12.206Z,49.1
2017-02-14T11:33:11.796Z,49.31
2017-02-14T11:34:11.914Z,49.74
2017-02-14T11:35:12.167Z,50.03
2017-02-14T11:36:12.242Z,50.25
2017-02-14T11:37:12.135Z,49.96
2017-02-14T11:38:11.811Z,48.9
2017-02-14T11:39:12.125Z,48.33
2017-02-14T11:40:11.773Z,48.81
2017-02-14T11:41:11.713Z,49.74
2017-02-14T11:42:11.721Z,50.53
2017-02-14T11:43:12.077Z,50.46
2017-02-14T11:44:11.751Z,50.65
2017-02-14T11:45:12.071Z,50.68
2017-02-14T11:46:12.085Z,50.46
2017-02-14T11:47:11.650Z,50.58
2017-02-14T11:48:12.025Z,50.68
2017-02-14T11:49:12.017Z,51.68
2017-02-14T11:50:11.620Z,51.75
2017-02-14T11:51:12.011Z,51.97
2017-02-14T11:52:11.602Z,51.59
2017-02-14T11:53:11.983Z,50.87
2017-02-14T11:54:11.974Z,50.75
2017-02-14T11:55:11.944Z,50.37
2017-02-14T11:56:11.944Z,50.03
2017-02-14T11:57:11.922Z,49.29
2017-02-14T11:58:11.542Z,50.03
2017-02-14T11:59:11.940Z,50.68
2017-02-14T12:00:11.890Z,51.3
2017-02-14T12:01:11.879Z,51.51
2017-02-14T12:02:11.878Z,51.23
2017-02-14T12:03:11.469Z,50.03
2017-02-14T12:04:11.858Z,49.74
2017-02-14T12:05:11.837Z,49.84
2017-02-14T12:06:11.445Z,49.93
2017-02-14T12:07:11.805Z,50.2
2017-02-14T12:08:11.796Z,50.94
2017-02-14T12:09:11.407Z,50.94
2017-02-14T12:10:11.765Z,50.65
2017-02-14T12:11:11.774Z,51.3
2017-02-14T12:12:11.356Z,50.89
2017-02-14T12:13:11.356Z,50.73
2017-02-14T12:14:11.338Z,50.17
2017-02-14T12:15:11.455Z,50.01
2017-02-14T12:16:11.320Z,49.84
2017-02-14T12:17:11.692Z,49.29
2017-02-14T12:18:11.679Z,49.57
2017-02-14T12:19:11.670Z,49.02
2017-02-14T12:20:11.658Z,48.83
2017-02-14T12:21:11.650Z,48.07
2017-02-14T12:22:11.709Z,48.16
2017-02-14T12:23:11.241Z,48.45
2017-02-14T12:24:11.768Z,48.74
2017-02-14T12:25:11.299Z,48.35
2017-02-14T12:26:11.201Z,47.7
2017-02-14T12:27:11.673Z,47.61
2017-02-14T12:28:11.609Z,47.15
2017-02-14T12:29:11.174Z,47.05
2017-02-14T12:30:11.595Z,47.34
2017-02-14T12:31:11.632Z,47.46
2017-02-14T12:32:11.513Z,47.27
2017-02-14T12:33:11.515Z,46.88
2017-02-14T12:34:11.598Z,47.15
2017-02-14T12:35:11.481Z,47.24
2017-02-14T12:36:11.483Z,47.61
2017-02-14T12:37:11.522Z,47.8
2017-02-14T12:38:11.460Z,47.39
2017-02-14T12:39:11.437Z,47.3
2017-02-14T12:40:11.418Z,48.25
2017-02-14T12:41:11.540Z,48.69
2017-02-14T12:42:11.018Z,48.59
2017-02-14T12:43:11.390Z,48.97
2017-02-14T12:44:10.990Z,49.15
2017-02-14T12:45:11.027Z,48.97
2017-02-14T12:46:11.390Z,48.71
2017-02-14T12:47:11.350Z,48.61
2017-02-14T12:48:11.397Z,48.13
2017-02-14T12:49:11.324Z,48.04
2017-02-14T12:50:11.333Z,48.13
2017-02-14T12:51:10.902Z,47.68
2017-02-14T12:52:11.300Z,47.3
2017-02-14T12:53:10.894Z,47.77
2017-02-14T12:54:11.282Z,47.77